Cozumel, ROO, Mexico
Current Conditions -  °F | °C
As of 5:42 PM on Friday 24 Oct 2014 (Local Time) from MMCZ Reporting Station
Overcast Overcast  
Wind Chill: 75°   Ceiling: 8000
Heat Index: 75°   Visibility: 6mi
Dew Point: 73°   Wind: 14mph
Humidity: 94%   Direction: 30°NNE
Pressure: 29.82"   Gusts: NA
Location:  20.43°N, 86.88°W
Report Text: MMCZ 242242Z 03012KT 6SM SCT015 SCT020 BKN080 OVC250 24/23 A2982 RMK 60025 8/863 VC CB RTS
Loading
Personal Weather Stations






























Interactive Weather Map
Tropical Storm Tracking
New forecast layout! Learn more

10-Day Weather Forecast

Advertisements
Track Severe Weather on mobile